Time,TemperatureF,DewpointF,PressureIn,WindDirection,WindDirectionDegrees,WindSpeedMPH,WindSpeedGustMPH,Humidity,HourlyPrecipIn,Conditions,Clouds,dailyrainin,SolarRadiationWatts/m^2,SoftwareType,DateUTC
2013-11-26 00:02:00,33.0,32.0,-100.00,East,97,1.0,3.0,97,0.01,,,0.02,0.000000,,2013-11-26 06:02:00,
2013-11-26 00:12:00,33.0,32.0,-100.00,East,97,1.0,3.0,97,0.01,,,0.02,0.000000,,2013-11-26 06:12:00,
2013-11-26 00:22:00,33.0,32.0,-100.00,East,97,1.0,3.0,97,0.01,,,0.02,0.000000,,2013-11-26 06:22:00,
2013-11-26 00:31:00,33.0,32.0,-100.00,NE,51,2.0,3.0,97,0.00,,,0.02,0.000000,,2013-11-26 06:31:00,
2013-11-26 00:52:00,33.0,32.0,-100.00,NE,51,2.0,3.0,97,0.00,,,0.02,0.000000,,2013-11-26 06:52:00,
2013-11-26 01:02:00,33.0,32.0,-100.00,NE,51,2.0,3.0,97,0.00,,,0.02,0.000000,,2013-11-26 07:02:00,
2013-11-26 01:12:00,33.0,32.0,-100.00,NE,51,2.0,3.0,97,0.00,,,0.02,0.000000,,2013-11-26 07:12:00,
2013-11-26 01:21:00,33.0,32.0,-100.00,NE,51,2.0,3.0,97,0.00,,,0.02,0.000000,,2013-11-26 07:21:00,
2013-11-26 01:31:00,34.0,33.0,-100.00,East,96,2.0,3.0,97,0.01,,,0.03,0.000000,,2013-11-26 07:31:00,
2013-11-26 01:52:00,34.0,33.0,-100.00,East,96,2.0,3.0,97,0.01,,,0.03,0.000000,,2013-11-26 07:52:00,
2013-11-26 02:02:00,34.0,33.0,-100.00,East,96,2.0,3.0,97,0.01,,,0.03,0.000000,,2013-11-26 08:02:00,
2013-11-26 02:11:00,34.0,33.0,-100.00,East,96,2.0,3.0,97,0.01,,,0.03,0.000000,,2013-11-26 08:11:00,
2013-11-26 02:22:00,34.0,33.0,-100.00,East,96,2.0,3.0,97,0.01,,,0.03,0.000000,,2013-11-26 08:22:00,
2013-11-26 02:31:00,34.0,33.0,-100.00,East,81,3.0,5.0,97,0.00,,,0.03,0.000000,,2013-11-26 08:31:00,
2013-11-26 02:52:00,34.0,33.0,-100.00,East,81,3.0,5.0,97,0.00,,,0.03,0.000000,,2013-11-26 08:52:00,
2013-11-26 03:02:00,34.0,33.0,-100.00,East,81,3.0,5.0,97,0.00,,,0.03,0.000000,,2013-11-26 09:02:00,
2013-11-26 03:11:00,34.0,33.0,-100.00,East,81,3.0,5.0,97,0.00,,,0.03,0.000000,,2013-11-26 09:11:00,
2013-11-26 03:21:00,34.0,33.0,-100.00,East,81,3.0,5.0,97,0.00,,,0.03,0.000000,,2013-11-26 09:21:00,
2013-11-26 03:31:00,34.0,33.0,-100.00,ENE,74,3.0,4.0,96,0.01,,,0.04,0.000000,,2013-11-26 09:31:00,
2013-11-26 03:54:00,34.0,33.0,-100.00,ENE,74,3.0,4.0,96,0.01,,,0.04,0.000000,,2013-11-26 09:54:00,
2013-11-26 04:03:00,34.0,33.0,-100.00,ENE,74,3.0,4.0,96,0.01,,,0.04,0.000000,,2013-11-26 10:03:00,
2013-11-26 04:12:00,34.0,33.0,-100.00,ENE,74,3.0,4.0,96,0.01,,,0.04,0.000000,,2013-11-26 10:12:00,
2013-11-26 04:23:00,34.0,33.0,-100.00,ENE,74,3.0,4.0,96,0.01,,,0.04,0.000000,,2013-11-26 10:23:00,
2013-11-26 04:31:00,34.0,33.0,-100.00,ENE,75,3.0,6.0,97,0.00,,,0.04,0.000000,,2013-11-26 10:31:00,
2013-11-26 04:53:00,34.0,33.0,-100.00,ENE,75,3.0,6.0,97,0.00,,,0.04,0.000000,,2013-11-26 10:53:00,
2013-11-26 05:02:00,34.0,33.0,-100.00,ENE,75,3.0,6.0,97,0.00,,,0.04,0.000000,,2013-11-26 11:02:00,
2013-11-26 05:12:00,34.0,33.0,-100.00,ENE,75,3.0,6.0,97,0.00,,,0.04,0.000000,,2013-11-26 11:12:00,
2013-11-26 05:23:00,34.0,33.0,-100.00,ENE,75,3.0,6.0,97,0.00,,,0.04,0.000000,,2013-11-26 11:23:00,
2013-11-26 05:31:00,34.0,33.0,-100.00,North,351,1.0,7.0,95,0.00,,,0.04,0.000000,,2013-11-26 11:31:00,
2013-11-26 05:53:00,34.0,33.0,-100.00,North,351,1.0,7.0,95,0.00,,,0.04,0.000000,,2013-11-26 11:53:00,
2013-11-26 06:02:00,34.0,33.0,-100.00,North,351,1.0,7.0,95,0.00,,,0.04,0.000000,,2013-11-26 12:02:00,
2013-11-26 06:12:00,34.0,33.0,-100.00,North,351,1.0,7.0,95,0.00,,,0.04,0.000000,,2013-11-26 12:12:00,
2013-11-26 06:22:00,34.0,33.0,-100.00,North,351,1.0,7.0,95,0.00,,,0.04,0.000000,,2013-11-26 12:22:00,
2013-11-26 06:31:00,34.0,32.0,-100.00,NE,34,4.0,8.0,94,0.01,,,0.05,0.000000,,2013-11-26 12:31:00,
2013-11-26 06:52:00,34.0,32.0,-100.00,NE,34,4.0,8.0,94,0.01,,,0.05,0.000000,,2013-11-26 12:52:00,
2013-11-26 07:02:00,34.0,32.0,-100.00,NE,34,4.0,8.0,94,0.01,,,0.05,0.000000,,2013-11-26 13:02:00,
2013-11-26 07:11:00,34.0,32.0,-100.00,NE,34,4.0,8.0,94,0.01,,,0.05,0.000000,,2013-11-26 13:11:00,
2013-11-26 07:22:00,34.0,32.0,-100.00,NE,34,4.0,8.0,94,0.01,,,0.05,0.000000,,2013-11-26 13:22:00,
2013-11-26 07:31:00,34.0,32.0,-100.00,NNE,18,4.0,8.0,93,0.00,,,0.05,4.000000,,2013-11-26 13:31:00,
2013-11-26 07:52:00,34.0,32.0,-100.00,NNE,18,4.0,8.0,93,0.00,,,0.05,4.000000,,2013-11-26 13:52:00,
2013-11-26 08:02:00,34.0,32.0,-100.00,NNE,18,4.0,8.0,93,0.00,,,0.05,4.000000,,2013-11-26 14:02:00,
2013-11-26 08:12:00,34.0,32.0,-100.00,NNE,18,4.0,8.0,93,0.00,,,0.05,4.000000,,2013-11-26 14:12:00,
2013-11-26 08:22:00,34.0,32.0,-100.00,NNE,18,4.0,8.0,93,0.00,,,0.05,4.000000,,2013-11-26 14:22:00,
2013-11-26 08:31:00,34.0,33.0,-100.00,NE,35,4.0,9.0,96,0.02,,,0.07,23.000000,,2013-11-26 14:31:00,
2013-11-26 08:52:00,34.0,33.0,-100.00,NE,35,4.0,9.0,96,0.02,,,0.07,23.000000,,2013-11-26 14:52:00,
2013-11-26 09:02:00,34.0,33.0,-100.00,NE,35,4.0,9.0,96,0.02,,,0.07,23.000000,,2013-11-26 15:02:00,
2013-11-26 09:12:00,34.0,33.0,-100.00,NE,35,4.0,9.0,96,0.02,,,0.07,23.000000,,2013-11-26 15:12:00,
2013-11-26 09:22:00,34.0,33.0,-100.00,NE,35,4.0,9.0,96,0.02,,,0.07,23.000000,,2013-11-26 15:22:00,
2013-11-26 09:31:00,35.0,34.0,-100.00,NE,38,4.0,8.0,96,0.02,,,-99.99,29.000000,,2013-11-26 15:31:00,
2013-11-26 09:54:00,35.0,34.0,-100.00,NE,38,4.0,8.0,96,0.02,,,-99.99,29.000000,,2013-11-26 15:54:00,
2013-11-26 10:04:00,35.0,34.0,-100.00,NE,38,4.0,8.0,96,0.02,,,-99.99,29.000000,,2013-11-26 16:04:00,
2013-11-26 10:13:00,35.0,34.0,-100.00,NE,38,4.0,8.0,96,0.02,,,-99.99,29.000000,,2013-11-26 16:13:00,
2013-11-26 10:23:00,35.0,34.0,-100.00,NE,38,4.0,8.0,96,0.02,,,-99.99,29.000000,,2013-11-26 16:23:00,
2013-11-26 10:31:00,35.0,34.0,-100.00,NE,46,5.0,10.0,96,0.04,,,0.13,52.000000,,2013-11-26 16:31:00,
2013-11-26 10:54:00,35.0,34.0,-100.00,NE,46,5.0,10.0,96,0.04,,,0.13,52.000000,,2013-11-26 16:54:00,
2013-11-26 11:03:00,35.0,34.0,-100.00,NE,46,5.0,10.0,96,0.04,,,0.13,52.000000,,2013-11-26 17:03:00,
2013-11-26 11:13:00,35.0,34.0,-100.00,NE,46,5.0,10.0,96,0.04,,,0.13,52.000000,,2013-11-26 17:13:00,
2013-11-26 11:22:00,35.0,34.0,-100.00,NE,46,5.0,10.0,96,0.04,,,0.13,52.000000,,2013-11-26 17:22:00,
2013-11-26 11:31:00,35.0,34.0,-100.00,NNE,33,4.0,7.0,97,0.01,,,0.14,59.000000,,2013-11-26 17:31:00,
2013-11-26 11:53:00,35.0,34.0,-100.00,NNE,33,4.0,7.0,97,0.01,,,0.14,59.000000,,2013-11-26 17:53:00,
2013-11-26 12:02:00,35.0,34.0,-100.00,NNE,33,4.0,7.0,97,0.01,,,0.14,59.000000,,2013-11-26 18:02:00,
2013-11-26 12:11:00,35.0,34.0,-100.00,NNE,33,4.0,7.0,97,0.01,,,0.14,59.000000,,2013-11-26 18:11:00,
2013-11-26 12:22:00,35.0,34.0,-100.00,NNE,33,4.0,7.0,97,0.01,,,0.14,59.000000,,2013-11-26 18:22:00,
2013-11-26 12:31:00,36.0,35.0,-100.00,NNE,22,3.0,13.0,95,0.00,,,0.14,67.000000,,2013-11-26 18:31:00,
2013-11-26 12:53:00,36.0,35.0,-100.00,NNE,22,3.0,13.0,95,0.00,,,0.14,67.000000,,2013-11-26 18:53:00,
2013-11-26 13:03:00,36.0,35.0,-100.00,NNE,22,3.0,13.0,95,0.00,,,0.14,67.000000,,2013-11-26 19:03:00,
2013-11-26 13:11:00,36.0,35.0,-100.00,NNE,22,3.0,13.0,95,0.00,,,0.14,67.000000,,2013-11-26 19:11:00,
2013-11-26 13:22:00,36.0,35.0,-100.00,NNE,22,3.0,13.0,95,0.00,,,0.14,67.000000,,2013-11-26 19:22:00,
2013-11-26 13:31:00,36.0,35.0,-100.00,North,352,3.0,11.0,95,0.00,,,0.14,51.000000,,2013-11-26 19:31:00,
2013-11-26 13:52:00,36.0,35.0,-100.00,North,352,3.0,11.0,95,0.00,,,0.14,51.000000,,2013-11-26 19:52:00,
2013-11-26 14:02:00,36.0,35.0,-100.00,North,352,3.0,11.0,95,0.00,,,0.14,51.000000,,2013-11-26 20:02:00,
2013-11-26 14:12:00,36.0,35.0,-100.00,North,352,3.0,11.0,95,0.00,,,0.14,51.000000,,2013-11-26 20:12:00,
2013-11-26 14:22:00,36.0,35.0,-100.00,North,352,3.0,11.0,95,0.00,,,0.14,51.000000,,2013-11-26 20:22:00,
2013-11-26 14:31:00,37.0,34.0,-100.00,NE,40,5.0,12.0,87,0.00,,,0.14,97.000000,,2013-11-26 20:31:00,
2013-11-26 15:11:00,37.0,34.0,-100.00,NE,40,5.0,12.0,87,0.00,,,0.14,97.000000,,2013-11-26 21:11:00,
2013-11-26 15:22:00,37.0,34.0,-100.00,NE,40,5.0,12.0,87,0.00,,,0.14,97.000000,,2013-11-26 21:22:00,
2013-11-26 15:31:00,36.0,31.0,-100.00,NNW,327,3.0,9.0,82,0.00,,,0.13,94.000000,,2013-11-26 21:31:00,
2013-11-26 16:13:00,36.0,31.0,-100.00,NNW,327,3.0,9.0,82,0.00,,,0.13,94.000000,,2013-11-26 22:13:00,
2013-11-26 16:23:00,36.0,31.0,-100.00,NNW,327,3.0,9.0,82,0.00,,,0.13,94.000000,,2013-11-26 22:23:00,
2013-11-26 16:31:00,36.0,30.0,-100.00,NNW,348,3.0,8.0,78,0.00,,,0.13,18.000000,,2013-11-26 22:31:00,
2013-11-26 16:53:00,36.0,30.0,-100.00,NNW,348,3.0,8.0,78,0.00,,,0.13,18.000000,,2013-11-26 22:53:00,
2013-11-26 17:02:00,36.0,30.0,-100.00,NNW,348,3.0,8.0,78,0.00,,,0.13,18.000000,,2013-11-26 23:02:00,
2013-11-26 17:12:00,36.0,30.0,-100.00,NNW,348,3.0,8.0,78,0.00,,,0.13,18.000000,,2013-11-26 23:12:00,
2013-11-26 17:22:00,36.0,30.0,-100.00,NNW,348,3.0,8.0,78,0.00,,,0.13,18.000000,,2013-11-26 23:22:00,
2013-11-26 17:31:00,35.0,29.0,-100.00,North,5,1.0,7.0,78,0.00,,,0.13,1.000000,,2013-11-26 23:31:00,
2013-11-26 17:53:00,35.0,29.0,-100.00,North,5,1.0,7.0,78,0.00,,,0.13,1.000000,,2013-11-26 23:53:00,
2013-11-26 18:02:00,35.0,29.0,-100.00,North,5,1.0,7.0,78,0.00,,,0.13,1.000000,,2013-11-27 00:02:00,
2013-11-26 18:11:00,35.0,29.0,-100.00,North,5,1.0,7.0,78,0.00,,,0.13,1.000000,,2013-11-27 00:11:00,
2013-11-26 18:21:00,35.0,29.0,-100.00,North,5,1.0,7.0,78,0.00,,,0.13,1.000000,,2013-11-27 00:21:00,
2013-11-26 18:31:00,32.0,28.0,-100.00,NW,309,1.0,2.0,86,0.00,,,0.13,0.000000,,2013-11-27 00:31:00,
2013-11-26 18:52:00,32.0,28.0,-100.00,NW,309,1.0,2.0,86,0.00,,,0.13,0.000000,,2013-11-27 00:52:00,
2013-11-26 19:02:00,32.0,28.0,-100.00,NW,309,1.0,2.0,86,0.00,,,0.13,0.000000,,2013-11-27 01:02:00,
2013-11-26 19:11:00,32.0,28.0,-100.00,NW,309,1.0,2.0,86,0.00,,,0.13,0.000000,,2013-11-27 01:11:00,
2013-11-26 19:21:00,32.0,28.0,-100.00,NW,309,1.0,2.0,86,0.00,,,0.13,0.000000,,2013-11-27 01:21:00,
2013-11-26 19:31:00,34.0,28.0,-100.00,North,356,1.0,4.0,78,0.00,,,0.13,0.000000,,2013-11-27 01:31:00,
2013-11-26 19:52:00,34.0,28.0,-100.00,North,356,1.0,4.0,78,0.00,,,0.13,0.000000,,2013-11-27 01:52:00,
2013-11-26 20:02:00,34.0,28.0,-100.00,North,356,1.0,4.0,78,0.00,,,0.13,0.000000,,2013-11-27 02:02:00,
2013-11-26 20:12:00,34.0,28.0,-100.00,North,356,1.0,4.0,78,0.00,,,0.13,0.000000,,2013-11-27 02:12:00,
2013-11-26 20:22:00,34.0,28.0,-100.00,North,356,1.0,4.0,78,0.00,,,0.13,0.000000,,2013-11-27 02:22:00,
2013-11-26 20:31:00,36.0,27.0,-100.00,NW,316,4.0,13.0,70,0.00,,,0.13,0.000000,,2013-11-27 02:31:00,
2013-11-26 20:52:00,36.0,27.0,-100.00,NW,316,4.0,13.0,70,0.00,,,0.13,0.000000,,2013-11-27 02:52:00,
2013-11-26 21:02:00,36.0,27.0,-100.00,NW,316,4.0,13.0,70,0.00,,,0.13,0.000000,,2013-11-27 03:02:00,
2013-11-26 21:11:00,36.0,27.0,-100.00,NW,316,4.0,13.0,70,0.00,,,0.13,0.000000,,2013-11-27 03:11:00,
2013-11-26 21:21:00,36.0,27.0,-100.00,NW,316,4.0,13.0,70,0.00,,,0.13,0.000000,,2013-11-27 03:21:00,
2013-11-26 21:31:00,35.0,25.0,-100.00,NNW,344,4.0,13.0,67,0.00,,,0.13,0.000000,,2013-11-27 03:31:00,
2013-11-26 21:54:00,35.0,25.0,-100.00,NNW,344,4.0,13.0,67,0.00,,,0.13,0.000000,,2013-11-27 03:54:00,
2013-11-26 22:04:00,35.0,25.0,-100.00,NNW,344,4.0,13.0,67,0.00,,,0.13,0.000000,,2013-11-27 04:04:00,
2013-11-26 22:13:00,35.0,25.0,-100.00,NNW,344,4.0,13.0,67,0.00,,,0.13,0.000000,,2013-11-27 04:13:00,
2013-11-26 22:23:00,35.0,25.0,-100.00,NNW,344,4.0,13.0,67,0.00,,,0.13,0.000000,,2013-11-27 04:23:00,
2013-11-26 22:31:00,34.0,25.0,-100.00,NNW,344,5.0,14.0,69,0.00,,,0.13,0.000000,,2013-11-27 04:31:00,
2013-11-26 22:53:00,34.0,25.0,-100.00,NNW,344,5.0,14.0,69,0.00,,,0.13,0.000000,,2013-11-27 04:53:00,
2013-11-26 23:02:00,34.0,25.0,-100.00,NNW,344,5.0,14.0,69,0.00,,,0.13,0.000000,,2013-11-27 05:02:00,
2013-11-26 23:12:00,34.0,25.0,-100.00,NNW,344,5.0,14.0,69,0.00,,,0.13,0.000000,,2013-11-27 05:12:00,
2013-11-26 23:22:00,34.0,25.0,-100.00,NNW,344,5.0,14.0,69,0.00,,,0.13,0.000000,,2013-11-27 05:22:00,
2013-11-26 23:31:00,32.0,20.0,-100.00,NNW,340,5.0,16.0,62,0.00,,,0.12,0.000000,,2013-11-27 05:31:00,
2013-11-26 23:53:00,32.0,20.0,-100.00,NNW,340,5.0,16.0,62,0.00,,,0.12,0.000000,,2013-11-27 05:53:00,